Time;durP1;ratioP1;P1;durP2;ratioP2;P2;SDS_P1;SDS_P2;PMS_P1;PMS_P2;Temp;Humidity;BMP_temperature;BMP_pressure;BME280_temperature;BME280_humidity;BME280_pressure;Samples;Min_cycle;Max_cycle;Signal;HPM_P1;HPM_P2
2022/08/08 00:01:56;;;;;;;6.13;3.65;;;;;;;23.72;61.29;99532.72;5026779;28;20813;-84
2022/08/08 00:04:40;;;;;;;6.10;3.47;;;;;;;23.63;60.89;99511.84;5027406;28;20037;-84
2022/08/08 00:07:25;;;;;;;7.18;2.58;;;;;;;23.75;61.29;99548.66;5019271;28;20030;-84
2022/08/08 00:10:12;;;;;;;7.10;3.47;;;;;;;23.73;61.40;99553.28;5007545;28;20068;-84
2022/08/08 00:13:02;;;;;;;5.68;3.88;;;;;;;23.72;61.37;99554.25;5007548;28;20044;-84
2022/08/08 00:15:33;;;;;;;4.32;2.80;;;;;;;23.57;61.70;99546.31;5006033;28;20049;-84
2022/08/08 00:18:38;;;;;;;3.58;3.10;;;;;;;23.55;61.80;99547.38;5019778;28;20510;-84
2022/08/08 00:21:05;;;;;;;5.00;3.25;;;;;;;23.44;61.54;99525.75;5032465;28;20053;-83
2022/08/08 00:23:44;;;;;;;5.20;2.70;;;;;;;23.35;62.33;99538.03;5026986;28;20041;-84
2022/08/08 00:26:17;;;;;;;5.85;3.20;;;;;;;23.20;61.75;99497.78;5027875;28;20827;-84
2022/08/08 00:28:47;;;;;;;8.15;3.60;;;;;;;23.27;61.74;99510.81;5026800;28;20049;-84
2022/08/08 00:31:28;;;;;;;6.63;3.70;;;;;;;23.13;62.01;99519.84;5026861;28;20064;-83
2022/08/08 00:37:13;;;;;;;4.55;2.83;;;;;;;23.16;62.38;99522.34;5018224;28;20041;-83
2022/08/08 00:40:24;;;;;;;7.07;3.50;;;;;;;23.22;61.77;99513.84;5007155;28;20099;-84
2022/08/08 00:43:31;;;;;;;7.75;3.92;;;;;;;23.38;61.36;99546.75;5006964;28;20036;-81
2022/08/08 00:46:28;;;;;;;7.60;3.80;;;;;;;23.22;61.55;99562.25;5021871;28;20049;-81
2022/08/08 00:49:16;;;;;;;9.38;2.95;;;;;;;22.71;62.04;99493.13;5025724;28;20602;-84
2022/08/08 00:52:05;;;;;;;3.50;2.25;;;;;;;23.10;61.92;99558.59;5006616;28;20060;-84
2022/08/08 00:54:49;;;;;;;6.00;3.90;;;;;;;23.09;61.94;99559.53;5006835;28;20052;-84
2022/08/08 00:57:26;;;;;;;5.75;3.88;;;;;;;23.11;62.15;99559.44;5022176;28;20487;-84
2022/08/08 01:00:10;;;;;;;6.43;3.28;;;;;;;23.28;61.63;99564.53;5006819;28;20049;-84
2022/08/08 01:03:02;;;;;;;3.95;2.67;;;;;;;23.27;61.60;99567.31;5006983;28;20037;-82
2022/08/08 01:05:51;;;;;;;8.63;3.97;;;;;;;23.36;61.38;99583.69;5015428;28;20052;-82
2022/08/08 01:08:36;;;;;;;4.30;2.75;;;;;;;23.22;61.77;99581.94;5024425;28;20423;-81
2022/08/08 01:11:26;;;;;;;4.93;3.55;;;;;;;23.23;61.60;99575.59;5042178;28;20778;-82
2022/08/08 01:14:28;;;;;;;5.03;3.08;;;;;;;23.05;62.07;99575.00;5030383;28;20095;-82
2022/08/08 01:17:18;;;;;;;4.90;3.30;;;;;;;23.05;62.22;99584.91;5015362;28;20116;-82
2022/08/08 01:20:24;;;;;;;3.97;3.03;;;;;;;22.88;62.23;99556.50;5010297;28;20034;-82
2022/08/08 01:23:11;;;;;;;5.75;3.38;;;;;;;22.97;62.77;99576.50;5018051;28;20108;-82
2022/08/08 01:26:08;;;;;;;5.68;3.17;;;;;;;22.97;63.04;99580.06;5014207;28;20033;-82
2022/08/08 01:29:07;;;;;;;5.78;3.78;;;;;;;22.74;64.05;99581.63;5018085;28;20523;-82
2022/08/08 01:32:17;;;;;;;7.60;3.72;;;;;;;22.73;64.18;99570.97;5010727;28;20030;-82
2022/08/08 01:35:13;;;;;;;5.80;3.63;;;;;;;22.63;63.91;99550.09;5027503;28;20491;-81
2022/08/08 01:38:09;;;;;;;5.70;3.72;;;;;;;22.84;64.17;99582.69;5010605;28;20045;-82
2022/08/08 01:40:56;;;;;;;6.78;3.85;;;;;;;22.84;64.25;99584.53;5025809;28;20128;-82
2022/08/08 01:43:59;;;;;;;6.63;4.65;;;;;;;22.73;64.89;99573.66;5010354;28;20106;-82
2022/08/08 01:46:47;;;;;;;5.78;4.22;;;;;;;22.72;65.13;99583.53;5019839;28;20073;-81
2022/08/08 01:50:09;;;;;;;5.82;4.20;;;;;;;22.48;65.56;99583.38;5029839;28;20040;-82
2022/08/08 01:53:02;;;;;;;5.80;4.28;;;;;;;22.22;64.97;99582.34;5025970;28;20541;-82
2022/08/08 01:55:46;;;;;;;6.18;3.88;;;;;;;21.98;65.17;99577.59;5024759;28;20080;-82
2022/08/08 01:58:50;;;;;;;6.80;4.35;;;;;;;21.92;65.30;99594.97;5011132;28;20570;-82
2022/08/08 02:01:37;;;;;;;;;;;;;;;21.47;67.47;99594.16;5025523;28;20706;-82
2022/08/08 02:04:27;;;;;;;5.28;3.10;;;;;;;21.40;67.46;99574.91;5010484;28;19972;-82
2022/08/08 02:07:21;;;;;;;6.13;4.07;;;;;;;21.31;68.72;99598.78;5019537;28;20115;-82
2022/08/08 02:09:55;;;;;;;6.07;3.50;;;;;;;21.57;68.10;99598.06;5011636;28;20120;-82
2022/08/08 02:12:26;;;;;;;5.78;3.92;;;;;;;21.38;68.30;99589.38;5010786;28;20034;-82
2022/08/08 02:15:00;;;;;;;6.15;4.03;;;;;;;21.27;68.19;99569.44;5029247;28;20041;-85
2022/08/08 02:17:31;;;;;;;6.32;4.00;;;;;;;21.44;68.54;99599.72;5028680;28;20518;-85
2022/08/08 02:20:07;;;;;;;5.63;3.83;;;;;;;21.22;68.52;99539.34;5028833;28;20037;-85
2022/08/08 02:22:57;;;;;;;6.43;3.97;;;;;;;21.33;69.34;99597.69;5028912;28;20026;-82
2022/08/08 02:25:47;;;;;;;6.40;4.38;;;;;;;20.96;71.09;99581.19;5010869;28;20038;-85
2022/08/08 02:28:45;;;;;;;8.25;4.07;;;;;;;21.18;69.68;99553.03;5016391;28;20104;-83
2022/08/08 02:31:28;;;;;;;7.65;4.85;;;;;;;21.70;68.84;99589.22;5009458;28;20041;-83
2022/08/08 02:34:10;;;;;;;4.72;3.75;;;;;;;21.41;69.59;99575.75;5009114;28;20030;-82
2022/08/08 02:36:57;;;;;;;4.72;3.60;;;;;;;21.62;68.68;99587.88;5016621;28;20033;-83
2022/08/08 02:39:49;;;;;;;9.23;4.45;;;;;;;21.87;67.75;99585.47;5028428;28;20656;-82
2022/08/08 02:42:30;;;;;;;4.05;3.20;;;;;;;21.93;67.25;99593.16;5029154;28;20462;-82
2022/08/08 02:44:55;;;;;;;6.63;3.55;;;;;;;21.89;66.62;99584.44;5028348;28;20053;-83
2022/08/08 02:47:33;;;;;;;6.63;3.33;;;;;;;21.76;66.89;99588.84;5025779;28;20041;-83
2022/08/08 02:50:20;;;;;;;6.35;3.55;;;;;;;21.67;67.20;99587.59;5028618;28;20045;-82
2022/08/08 02:53:13;;;;;;;7.15;4.55;;;;;;;21.86;66.34;99595.38;5028486;28;20037;-82
2022/08/08 02:56:07;;;;;;;9.23;3.97;;;;;;;21.09;69.57;99581.28;5014839;28;20080;-83
2022/08/08 02:58:42;;;;;;;6.38;3.67;;;;;;;21.37;68.69;99596.56;5008558;28;20552;-82
2022/08/08 03:01:36;;;;;;;7.50;4.70;;;;;;;21.54;67.78;99587.50;5008698;28;20030;-81
2022/08/08 03:04:27;;;;;;;6.20;4.05;;;;;;;21.37;68.74;99601.94;5008691;28;20794;-81
2022/08/08 03:07:21;;;;;;;6.50;4.68;;;;;;;21.32;69.02;99603.16;5008176;28;20042;-80
2022/08/08 03:10:37;;;;;;;7.00;4.00;;;;;;;21.16;69.84;99593.34;5008738;28;20033;-81
2022/08/08 03:13:18;;;;;;;6.70;4.40;;;;;;;21.33;69.38;99594.16;5006052;28;20456;-81
2022/08/08 03:16:15;;;;;;;7.43;4.30;;;;;;;21.65;68.19;99602.94;5010147;28;20038;-81
2022/08/08 03:18:53;;;;;;;5.75;3.83;;;;;;;21.69;67.86;99615.22;5007478;28;20057;-81
2022/08/08 03:21:18;;;;;;;7.80;4.78;;;;;;;21.55;67.37;99575.81;5007676;28;20056;-80
2022/08/08 03:23:45;;;;;;;5.75;4.03;;;;;;;21.42;67.64;99582.88;5017754;28;20507;-84
2022/08/08 03:26:14;;;;;;;8.02;4.15;;;;;;;21.56;67.92;99623.16;5026608;28;20029;-80
2022/08/08 03:28:48;;;;;;;6.60;4.15;;;;;;;21.51;67.77;99600.25;5007754;28;20784;-80
2022/08/08 03:34:07;;;;;;;6.20;4.38;;;;;;;21.57;66.89;99586.47;5027232;28;20040;-82
2022/08/08 03:36:40;;;;;;;6.20;4.53;;;;;;;21.64;65.89;99579.72;5014930;28;20041;-83
2022/08/08 03:39:06;;;;;;;7.90;4.68;;;;;;;21.53;67.00;99617.97;5022737;28;20480;-83
2022/08/08 03:41:33;;;;;;;6.07;3.90;;;;;;;21.52;67.43;99631.47;5007742;28;20798;-83
2022/08/08 03:43:59;;;;;;;6.03;3.42;;;;;;;21.21;67.32;99561.78;5014863;28;20056;-84
2022/08/08 03:46:24;;;;;;;7.30;4.25;;;;;;;21.75;67.05;99630.94;5027652;28;20041;-86
2022/08/08 03:48:55;;;;;;;5.05;3.25;;;;;;;21.92;66.34;99643.31;5016003;28;20061;-88
2022/08/08 03:51:21;;;;;;;4.25;2.67;;;;;;;21.64;66.51;99603.88;5017520;28;20542;-85
2022/08/08 03:53:46;;;;;;;6.53;3.90;;;;;;;21.44;67.20;99610.44;5021687;28;20030;-84
2022/08/08 03:56:14;;;;;;;8.88;4.47;;;;;;;21.44;66.95;99603.28;5007667;28;20045;-84
2022/08/08 03:58:40;;;;;;;7.32;4.88;;;;;;;21.65;66.70;99627.09;5008473;28;20084;-84
2022/08/08 04:01:06;;;;;;;6.50;4.40;;;;;;;21.59;66.62;99597.94;5007078;28;20555;-83
2022/08/08 04:03:35;;;;;;;6.85;3.65;;;;;;;21.95;66.16;99621.63;5007410;28;20539;-84
2022/08/08 04:06:05;;;;;;;6.28;4.10;;;;;;;22.02;66.65;99659.69;5005815;28;20042;-83
2022/08/08 04:08:30;;;;;;;7.65;5.07;;;;;;;22.03;66.75;99650.69;5017620;28;20032;-80
2022/08/08 04:10:56;;;;;;;5.35;3.47;;;;;;;21.92;66.65;99637.94;5021333;28;20046;-80
2022/08/08 04:13:21;;;;;;;7.47;4.70;;;;;;;22.27;66.29;99667.03;5014204;28;20175;-81
2022/08/08 04:15:47;;;;;;;7.28;5.10;;;;;;;22.37;65.42;99647.69;5020258;28;20037;-82
2022/08/08 04:18:12;;;;;;;7.63;5.25;;;;;;;22.60;64.75;99665.00;5009166;28;20139;-82
2022/08/08 04:20:38;;;;;;;8.50;5.70;;;;;;;22.52;64.58;99628.75;5007196;28;20045;-81
2022/08/08 04:23:04;;;;;;;6.57;4.43;;;;;;;22.81;64.16;99651.97;5006879;28;20577;-83
2022/08/08 04:25:31;;;;;;;11.18;6.03;;;;;;;22.95;63.74;99659.13;5022218;28;20029;-82
2022/08/08 04:27:56;;;;;;;6.78;4.55;;;;;;;22.89;63.40;99641.56;5012086;28;20034;-83
2022/08/08 04:30:22;;;;;;;7.50;4.38;;;;;;;22.81;64.03;99636.69;5009225;28;20526;-83
2022/08/08 04:32:47;;;;;;;7.43;4.15;;;;;;;23.19;63.40;99662.88;5026603;28;20518;-81
2022/08/08 04:35:13;;;;;;;9.55;5.47;;;;;;;23.21;63.53;99681.59;5019167;28;20030;-82
2022/08/08 04:37:38;;;;;;;5.80;3.85;;;;;;;23.10;63.29;99633.91;5022600;28;20167;-81
2022/08/08 04:40:04;;;;;;;6.43;3.83;;;;;;;23.12;63.44;99629.28;5020607;28;20029;-80
2022/08/08 04:42:32;;;;;;;10.18;5.10;;;;;;;23.33;63.24;99659.25;5006568;28;20042;-82
2022/08/08 04:44:59;;;;;;;6.55;3.85;;;;;;;23.31;63.90;99666.56;5011222;28;20058;-81
2022/08/08 04:47:25;;;;;;;8.18;4.47;;;;;;;23.11;63.71;99641.03;5043070;28;20037;-79
2022/08/08 04:49:50;;;;;;;6.13;4.07;;;;;;;23.38;62.87;99645.47;5035459;28;20065;-80
2022/08/08 04:52:16;;;;;;;6.47;4.55;;;;;;;23.35;63.26;99676.13;5046563;28;20041;-80
2022/08/08 04:54:41;;;;;;;7.53;4.72;;;;;;;23.57;61.97;99658.50;5038332;28;20505;-80
2022/08/08 04:57:07;;;;;;;13.75;4.38;;;;;;;23.57;61.97;99655.81;5007008;28;20583;-80
2022/08/08 04:59:32;;;;;;;5.88;4.28;;;;;;;24.07;61.04;99688.28;5010349;28;20036;-82
2022/08/08 05:01:58;;;;;;;6.85;4.25;;;;;;;23.94;61.62;99643.34;5026535;28;20821;-80
2022/08/08 05:04:23;;;;;;;7.85;4.95;;;;;;;24.25;61.36;99686.94;5026234;28;20029;-81
2022/08/08 05:06:49;;;;;;;6.80;3.75;;;;;;;24.25;61.78;99689.66;5025241;28;20491;-80
2022/08/08 05:09:14;;;;;;;6.28;4.22;;;;;;;24.07;62.33;99680.19;5026741;28;20063;-82
2022/08/08 05:11:40;;;;;;;7.53;4.13;;;;;;;23.66;63.36;99675.84;5026404;28;20219;-80
2022/08/08 05:14:07;;;;;;;6.68;3.92;;;;;;;23.91;62.85;99666.94;5026292;28;20411;-81
2022/08/08 05:16:33;;;;;;;8.32;4.63;;;;;;;24.03;62.49;99675.97;5026161;28;20551;-80
2022/08/08 05:18:58;;;;;;;7.00;4.13;;;;;;;24.30;61.06;99671.31;5012984;28;20041;-80
2022/08/08 05:21:24;;;;;;;5.72;3.55;;;;;;;24.75;59.90;99670.75;5022514;28;20029;-80
2022/08/08 05:23:50;;;;;;;10.90;4.68;;;;;;;25.16;58.33;99682.09;5008681;28;20088;-80
2022/08/08 05:26:16;;;;;;;6.55;4.90;;;;;;;25.34;58.13;99691.53;5016156;28;20069;-79
2022/08/08 05:28:42;;;;;;;6.45;4.13;;;;;;;25.60;56.99;99658.09;5006215;28;20056;-80
2022/08/08 05:31:07;;;;;;;10.02;7.55;;;;;;;25.94;55.55;99686.00;5006572;28;20464;-80
2022/08/08 05:33:33;;;;;;;9.25;5.00;;;;;;;26.19;55.52;99686.78;5006881;28;20029;-79
2022/08/08 05:36:00;;;;;;;7.20;4.07;;;;;;;26.16;55.34;99695.13;5006025;28;20029;-80
2022/08/08 05:38:28;;;;;;;5.57;3.88;;;;;;;25.70;56.68;99678.88;5013606;28;20029;-80
2022/08/08 05:40:56;;;;;;;7.00;3.22;;;;;;;25.76;57.08;99669.41;5024025;28;20499;-80
2022/08/08 05:43:27;;;;;;;6.43;3.65;;;;;;;25.87;56.63;99646.94;5026166;28;20061;-80
2022/08/08 05:45:59;;;;;;;5.82;3.78;;;;;;;26.16;55.78;99687.03;5024761;28;20058;-80
2022/08/08 05:48:25;;;;;;;6.38;4.10;;;;;;;26.37;54.77;99679.00;5015845;28;20057;-81
2022/08/08 05:50:51;;;;;;;6.57;4.13;;;;;;;26.12;55.11;99664.81;5005837;28;20068;-80
2022/08/08 05:53:17;;;;;;;4.95;3.33;;;;;;;26.37;54.55;99684.41;5020797;28;20033;-83
2022/08/08 05:55:44;;;;;;;7.45;4.05;;;;;;;26.88;53.28;99696.50;5014461;28;20044;-81
2022/08/08 05:58:13;;;;;;;6.05;3.90;;;;;;;27.01;53.56;99667.44;5025938;28;20424;-81
2022/08/08 06:00:43;;;;;;;5.22;3.33;;;;;;;27.48;52.15;99702.31;5011041;28;20124;-81
2022/08/08 06:03:14;;;;;;;6.13;3.78;;;;;;;27.71;51.28;99700.34;5017327;28;20116;-81
2022/08/08 06:05:48;;;;;;;4.53;3.05;;;;;;;27.76;50.41;99678.25;5020496;28;20460;-82
2022/08/08 06:08:16;;;;;;;7.25;3.90;;;;;;;27.60;49.98;99681.47;5019573;28;20034;-80
2022/08/08 06:10:44;;;;;;;5.50;3.63;;;;;;;28.00;49.13;99692.41;5022675;28;20040;-82
2022/08/08 06:13:10;;;;;;;6.00;4.45;;;;;;;28.00;48.32;99683.44;5029573;28;20056;-81
2022/08/08 06:15:37;;;;;;;5.22;3.47;;;;;;;28.33;48.62;99695.84;5029446;28;20427;-81
2022/08/08 06:18:03;;;;;;;6.70;3.17;;;;;;;28.72;47.58;99698.69;5018878;28;20041;-81
2022/08/08 06:20:29;;;;;;;5.05;3.03;;;;;;;28.53;47.83;99682.31;5029133;28;20037;-81
2022/08/08 06:22:55;;;;;;;5.00;3.17;;;;;;;28.50;46.61;99690.75;5029007;28;20495;-81
2022/08/08 06:25:20;;;;;;;5.10;3.15;;;;;;;28.63;46.26;99658.81;5029761;28;20037;-81
2022/08/08 06:27:54;;;;;;;5.10;2.50;;;;;;;29.05;46.47;99703.88;5044368;28;20053;-82
2022/08/08 06:30:21;;;;;;;5.38;3.45;;;;;;;29.01;46.21;99675.28;5029461;28;20032;-82
2022/08/08 06:32:54;;;;;;;7.32;3.42;;;;;;;29.35;46.07;99678.47;5029028;28;20036;-81
2022/08/08 06:35:19;;;;;;;4.75;3.38;;;;;;;29.80;44.84;99690.59;5029087;28;20080;-82
2022/08/08 06:37:51;;;;;;;4.97;3.13;;;;;;;29.90;43.55;99706.88;5028871;28;20033;-81
2022/08/08 06:40:17;;;;;;;3.78;2.97;;;;;;;29.57;43.07;99690.03;5028924;28;20569;-82
2022/08/08 06:42:52;;;;;;;6.28;3.55;;;;;;;29.22;43.51;99694.19;5029120;28;20056;-82
2022/08/08 06:45:19;;;;;;;6.10;3.03;;;;;;;29.26;44.29;99682.91;5028614;28;20045;-82
2022/08/08 06:47:45;;;;;;;4.05;2.60;;;;;;;29.52;43.90;99679.59;5029162;28;20491;-82
2022/08/08 06:50:11;;;;;;;4.50;2.95;;;;;;;29.98;44.18;99685.22;5028555;28;20038;-81
2022/08/08 06:52:38;;;;;;;4.55;3.00;;;;;;;30.26;42.54;99710.63;5027107;28;20095;-84
2022/08/08 06:55:06;;;;;;;5.90;2.53;;;;;;;30.58;42.40;99709.31;5028838;28;20065;-81
2022/08/08 06:57:32;;;;;;;7.97;3.13;;;;;;;30.87;41.39;99692.81;5028534;28;20121;-81
2022/08/08 06:59:58;;;;;;;3.30;2.45;;;;;;;30.77;40.69;99688.44;5028613;28;20067;-82
2022/08/08 07:02:27;;;;;;;9.73;2.70;;;;;;;31.23;40.64;99701.03;5028811;28;20079;-82
2022/08/08 07:05:00;;;;;;;3.60;2.67;;;;;;;31.31;39.96;99723.91;5028330;28;20057;-82
2022/08/08 07:07:52;;;;;;;4.15;2.83;;;;;;;32.05;38.48;99710.84;5028362;28;20040;-82
2022/08/08 07:10:21;;;;;;;3.10;2.03;;;;;;;32.11;36.74;99708.34;5030349;28;20056;-81
2022/08/08 07:12:53;;;;;;;3.10;2.13;;;;;;;32.21;37.06;99667.34;5028839;28;20515;-82
2022/08/08 07:15:41;;;;;;;4.95;2.83;;;;;;;32.25;35.96;99706.03;5028223;28;20036;-81
2022/08/08 07:18:08;;;;;;;2.80;2.08;;;;;;;32.61;36.33;99708.56;5028557;28;20033;-81
2022/08/08 07:20:43;;;;;;;2.78;1.60;;;;;;;32.83;33.33;99690.78;5028182;28;20033;-81
2022/08/08 07:23:40;;;;;;;4.80;2.40;;;;;;;32.99;33.68;99677.13;5028457;28;20034;-81
2022/08/08 07:26:07;;;;;;;5.13;2.38;;;;;;;32.72;33.10;99672.81;5028360;28;20029;-82
2022/08/08 07:28:35;;;;;;;2.45;1.60;;;;;;;33.21;33.98;99702.09;5023187;28;20033;-82
2022/08/08 07:31:03;;;;;;;3.10;1.90;;;;;;;32.94;33.84;99690.44;5024888;28;20116;-82
2022/08/08 07:33:30;;;;;;;2.95;1.92;;;;;;;33.18;32.86;99659.59;5027880;28;20120;-81
2022/08/08 07:35:56;;;;;;;3.25;1.73;;;;;;;33.68;32.71;99703.31;5027890;28;20060;-80
2022/08/08 07:38:22;;;;;;;2.38;1.50;;;;;;;34.05;31.90;99688.22;5028026;28;20075;-81
2022/08/08 07:40:48;;;;;;;3.47;1.58;;;;;;;34.51;29.00;99707.59;5027956;28;20038;-80
2022/08/08 07:43:15;;;;;;;2.63;1.60;;;;;;;34.61;30.22;99705.47;5027770;28;20115;-81
2022/08/08 07:45:43;;;;;;;4.18;1.98;;;;;;;34.82;29.18;99673.91;5027823;28;20056;-81
2022/08/08 07:48:09;;;;;;;3.33;1.70;;;;;;;35.17;29.27;99700.88;5027578;28;20119;-81
2022/08/08 07:50:37;;;;;;;4.50;1.92;;;;;;;34.63;31.01;99675.16;5027126;28;20120;-81
2022/08/08 07:53:18;;;;;;;2.33;1.65;;;;;;;35.37;27.52;99687.56;5026397;28;20781;-81
2022/08/08 07:55:47;;;;;;;2.75;1.63;;;;;;;35.81;27.41;99681.38;5027516;28;20029;-81
2022/08/08 07:58:27;;;;;;;4.32;1.65;;;;;;;35.87;26.66;99683.34;5026525;28;20501;-81
2022/08/08 08:01:01;;;;;;;3.35;1.58;;;;;;;34.70;29.07;99664.34;5027690;28;20502;-82
2022/08/08 08:03:55;;;;;;;2.53;1.40;;;;;;;34.55;26.97;99686.16;5028137;28;20083;-81
2022/08/08 08:06:21;;;;;;;2.28;1.50;;;;;;;34.12;27.46;99659.09;5029869;28;20542;-81
2022/08/08 08:08:48;;;;;;;5.82;2.08;;;;;;;34.49;28.49;99673.19;5027955;28;20115;-81
2022/08/08 08:11:17;;;;;;;2.53;1.38;;;;;;;34.51;26.60;99674.72;5027334;28;20033;-81
2022/08/08 08:14:07;;;;;;;2.63;1.65;;;;;;;35.42;28.15;99676.88;5027541;28;20551;-81
2022/08/08 08:16:37;;;;;;;2.55;1.48;;;;;;;35.31;25.75;99639.81;5027017;28;20044;-82
2022/08/08 08:19:06;;;;;;;2.17;1.20;;;;;;;36.04;26.49;99673.03;5027413;28;20057;-81
2022/08/08 08:21:44;;;;;;;3.78;1.92;;;;;;;36.23;24.83;99666.13;5026393;28;20044;-81
2022/08/08 08:24:10;;;;;;;4.50;2.38;;;;;;;36.23;23.67;99663.38;5027150;28;20099;-81
2022/08/08 08:26:36;;;;;;;1.85;1.42;;;;;;;36.17;24.69;99666.88;5026760;28;20521;-81
2022/08/08 08:29:02;;;;;;;2.80;1.75;;;;;;;36.42;23.06;99661.09;5027085;28;20108;-81
2022/08/08 08:31:28;;;;;;;2.50;1.80;;;;;;;36.58;22.95;99641.66;5027622;28;20380;-81
2022/08/08 08:33:53;;;;;;;6.10;1.58;;;;;;;35.89;25.06;99656.56;5026923;28;20040;-81
2022/08/08 08:36:19;;;;;;;3.47;1.98;;;;;;;36.20;25.88;99661.84;5027275;28;20038;-83
2022/08/08 08:38:46;;;;;;;2.13;1.42;;;;;;;36.82;23.08;99665.19;5027391;28;20038;-81
2022/08/08 08:41:12;;;;;;;1.73;1.25;;;;;;;37.02;23.63;99659.06;5026869;28;20117;-81
2022/08/08 08:43:41;;;;;;;1.58;1.20;;;;;;;37.33;23.48;99653.25;5027070;28;20037;-81
2022/08/08 08:46:08;;;;;;;4.07;2.08;;;;;;;37.27;22.96;99654.88;5025267;28;20088;-81
2022/08/08 08:48:34;;;;;;;1.60;1.23;;;;;;;37.17;23.16;99624.09;5026337;28;20091;-81
2022/08/08 08:51:01;;;;;;;2.30;1.50;;;;;;;36.85;23.18;99633.75;5026371;28;20029;-81
2022/08/08 08:53:27;;;;;;;2.75;2.10;;;;;;;36.67;22.32;99626.78;5026837;28;20043;-80
2022/08/08 08:55:56;;;;;;;2.22;1.20;;;;;;;36.80;23.13;99628.81;5026861;28;20029;-81
2022/08/08 08:58:34;;;;;;;3.33;1.83;;;;;;;37.12;24.80;99640.31;5026710;28;20525;-81
2022/08/08 09:01:02;;;;;;;2.42;1.95;;;;;;;37.37;22.83;99617.94;5026894;28;20061;-81
2022/08/08 09:03:30;;;;;;;2.95;1.63;;;;;;;37.21;22.70;99611.63;5026996;28;20037;-82
2022/08/08 09:05:56;;;;;;;2.88;1.67;;;;;;;37.68;22.42;99630.41;5026690;28;20041;-82
2022/08/08 09:08:26;;;;;;;2.45;1.65;;;;;;;36.92;22.98;99621.75;5026458;28;20551;-85
2022/08/08 09:10:52;;;;;;;4.18;2.65;;;;;;;36.71;24.11;99621.72;5026674;28;20037;-80
2022/08/08 09:13:18;;;;;;;2.35;1.50;;;;;;;36.73;22.65;99609.50;5026585;28;20245;-81
2022/08/08 09:15:44;;;;;;;2.22;1.17;;;;;;;36.83;23.16;99609.19;5026656;28;20033;-81
2022/08/08 09:18:10;;;;;;;2.47;1.35;;;;;;;36.60;21.89;99612.09;5026403;28;20195;-80
2022/08/08 09:20:36;;;;;;;1.65;1.00;;;;;;;36.36;23.15;99614.16;5026631;28;20138;-81
2022/08/08 09:23:03;;;;;;;4.18;3.78;;;;;;;36.67;24.33;99617.66;5026666;28;20048;-81
2022/08/08 09:25:29;;;;;;;4.05;1.70;;;;;;;36.13;23.07;99585.94;5026584;28;20037;-82
2022/08/08 09:27:56;;;;;;;3.50;1.60;;;;;;;35.94;26.22;99592.91;5026669;28;20124;-82
2022/08/08 09:30:24;;;;;;;5.43;1.50;;;;;;;36.08;24.72;99613.97;5026626;28;20034;-81
2022/08/08 09:32:55;;;;;;;2.65;1.58;;;;;;;36.12;22.62;99587.84;5026733;28;20037;-82
2022/08/08 09:35:27;;;;;;;1.48;0.95;;;;;;;36.37;23.29;99595.78;5029716;28;20179;-82
2022/08/08 09:37:55;;;;;;;2.97;1.58;;;;;;;36.88;22.72;99576.47;5030553;28;20090;-82
2022/08/08 09:40:26;;;;;;;2.47;1.40;;;;;;;36.60;22.31;99578.28;5030478;28;20034;-82
2022/08/08 09:43:01;;;;;;;2.55;1.02;;;;;;;36.61;22.22;99602.81;5028659;28;20411;-82
2022/08/08 09:45:31;;;;;;;2.22;1.30;;;;;;;35.78;22.50;99599.44;5030129;28;20060;-82
2022/08/08 09:48:03;;;;;;;8.23;1.70;;;;;;;35.56;22.62;99581.97;5029823;28;20030;-83
2022/08/08 09:50:31;;;;;;;1.75;1.38;;;;;;;35.08;23.10;99580.38;5030243;28;20029;-81
2022/08/08 09:53:00;;;;;;;2.92;1.48;;;;;;;34.95;23.19;99569.19;5030258;28;20043;-81
2022/08/08 09:55:29;;;;;;;2.53;1.05;;;;;;;35.27;23.21;99564.47;5028164;28;20030;-82
2022/08/08 09:58:15;;;;;;;1.73;1.15;;;;;;;35.62;23.67;99584.84;5029566;28;20031;-83
2022/08/08 10:00:43;;;;;;;2.83;1.83;;;;;;;35.50;23.25;99546.06;5030080;28;20113;-83
2022/08/08 10:03:14;;;;;;;1.75;1.05;;;;;;;35.78;22.71;99580.22;5029624;28;20034;-82
2022/08/08 10:05:41;;;;;;;1.85;1.23;;;;;;;35.68;22.50;99551.16;5029855;28;20025;-83
2022/08/08 10:08:06;;;;;;;1.70;0.90;;;;;;;35.28;23.07;99525.91;5029448;28;20586;-82
2022/08/08 10:10:42;;;;;;;2.17;1.15;;;;;;;35.62;22.92;99573.00;5029993;28;20108;-83
2022/08/08 10:13:22;;;;;;;2.55;1.10;;;;;;;35.32;21.66;99540.09;5015189;28;20038;-82
2022/08/08 10:15:53;;;;;;;5.30;1.83;;;;;;;35.81;22.91;99545.03;5009761;28;20499;-82
2022/08/08 10:18:27;;;;;;;5.00;1.42;;;;;;;35.82;22.08;99541.25;5009530;28;20129;-84
2022/08/08 10:21:00;;;;;;;2.83;1.52;;;;;;;36.17;21.82;99565.31;5009602;28;20034;-83
2022/08/08 10:23:34;;;;;;;1.75;1.10;;;;;;;36.02;21.33;99555.22;5009758;28;20112;-83
2022/08/08 10:26:03;;;;;;;2.33;1.05;;;;;;;35.47;22.85;99549.16;5009255;28;20042;-83
2022/08/08 10:28:31;;;;;;;2.22;1.50;;;;;;;35.69;22.43;99532.81;5009406;28;20042;-83
2022/08/08 10:30:59;;;;;;;1.27;0.98;;;;;;;35.55;21.41;99518.06;5009275;28;20033;-82
2022/08/08 10:33:32;;;;;;;1.83;1.17;;;;;;;35.30;22.77;99536.69;5009483;28;20021;-83
2022/08/08 10:36:02;;;;;;;2.80;1.60;;;;;;;35.43;22.28;99534.13;5009093;28;20030;-82
2022/08/08 10:38:31;;;;;;;4.05;2.28;;;;;;;35.48;21.86;99517.09;5009345;28;20030;-82
2022/08/08 10:41:04;;;;;;;2.03;1.17;;;;;;;35.45;21.07;99501.91;5009593;28;20038;-82
2022/08/08 10:43:40;;;;;;;2.97;0.98;;;;;;;35.30;21.60;99537.53;5009211;28;20500;-81
2022/08/08 10:46:27;;;;;;;0.80;0.75;;;;;;;35.35;20.92;99528.75;5009001;28;20046;-81
2022/08/08 10:48:54;;;;;;;1.55;0.77;;;;;;;35.65;21.15;99526.00;5008812;28;20510;-81
2022/08/08 10:51:21;;;;;;;3.45;1.10;;;;;;;35.70;20.65;99533.66;5008610;28;20100;-82
2022/08/08 10:53:48;;;;;;;1.10;0.60;;;;;;;35.39;20.66;99529.19;5008546;28;20029;-82
2022/08/08 10:56:14;;;;;;;1.05;0.73;;;;;;;35.29;20.20;99521.28;5008936;28;20037;-80
2022/08/08 10:58:39;;;;;;;1.23;1.00;;;;;;;35.45;20.83;99506.50;5008743;28;20463;-80
2022/08/08 11:01:09;;;;;;;1.25;0.95;;;;;;;35.34;20.36;99516.06;5009321;28;20111;-80
2022/08/08 11:03:42;;;;;;;10.45;2.08;;;;;;;34.86;20.38;99488.94;5009251;28;20048;-83
2022/08/08 11:06:08;;;;;;;5.00;2.15;;;;;;;34.65;20.95;99484.16;5008532;28;20033;-81
2022/08/08 11:08:35;;;;;;;3.13;0.82;;;;;;;34.86;20.48;99508.13;5008536;28;20772;-82
2022/08/08 11:11:06;;;;;;;1.65;0.77;;;;;;;35.01;20.21;99507.31;5008795;28;20033;-81
2022/08/08 11:13:38;;;;;;;1.95;1.08;;;;;;;35.30;19.84;99488.19;5008692;28;20121;-83
2022/08/08 11:16:04;;;;;;;9.05;3.80;;;;;;;35.11;20.10;99481.34;5008630;28;20038;-82
2022/08/08 11:18:38;;;;;;;2.15;1.40;;;;;;;35.08;20.71;99500.03;5007660;28;20603;-83
2022/08/08 11:21:06;;;;;;;1.33;1.13;;;;;;;34.87;20.61;99498.88;5008235;28;20120;-83
2022/08/08 11:23:35;;;;;;;2.05;0.90;;;;;;;34.24;20.94;99477.09;5011511;28;20474;-84
2022/08/08 11:26:04;;;;;;;1.85;0.95;;;;;;;34.88;21.10;99469.56;5028143;28;20423;-82
2022/08/08 11:28:34;;;;;;;1.05;0.70;;;;;;;35.15;20.83;99481.81;5028314;28;20492;-81
2022/08/08 11:31:01;;;;;;;1.65;1.17;;;;;;;35.49;20.15;99472.19;5028319;28;20038;-81
2022/08/08 11:33:29;;;;;;;2.35;0.85;;;;;;;35.74;19.90;99496.56;5027837;28;20519;-81
2022/08/08 11:35:55;;;;;;;2.35;1.10;;;;;;;35.21;19.75;99492.03;5027874;28;20174;-81
2022/08/08 11:38:23;;;;;;;3.35;0.80;;;;;;;35.14;20.22;99483.72;5026713;28;20507;-81
2022/08/08 11:40:50;;;;;;;1.77;1.00;;;;;;;35.39;19.93;99485.34;5028105;28;20033;-82
2022/08/08 11:43:17;;;;;;;13.55;1.58;;;;;;;35.32;19.92;99466.91;5027873;28;20532;-80
2022/08/08 11:45:44;;;;;;;20.52;12.75;;;;;;;34.83;20.43;99456.44;5027957;28;20053;-80
2022/08/08 11:48:12;;;;;;;5.47;3.42;;;;;;;34.35;20.32;99474.97;5027751;28;20120;-83
2022/08/08 11:50:38;;;;;;;7.75;5.88;;;;;;;34.35;20.75;99464.88;5027460;28;20499;-83
2022/08/08 11:53:05;;;;;;;1.70;1.27;;;;;;;34.73;20.15;99439.41;5027892;28;20030;-82
2022/08/08 11:55:34;;;;;;;1.42;0.75;;;;;;;35.31;20.10;99450.66;5027223;28;20072;-82
2022/08/08 11:58:06;;;;;;;1.17;0.90;;;;;;;34.69;20.00;99463.56;5024035;28;20099;-84
2022/08/08 12:00:31;;;;;;;1.33;0.82;;;;;;;34.67;20.67;99468.38;5026975;28;20484;-82
2022/08/08 12:02:59;;;;;;;2.25;1.33;;;;;;;35.08;19.83;99459.78;5026961;28;20025;-82
2022/08/08 12:05:37;;;;;;;3.63;1.23;;;;;;;35.29;19.96;99448.09;5026939;28;20104;-83
2022/08/08 12:08:06;;;;;;;1.42;1.08;;;;;;;35.08;20.11;99464.41;5026475;28;20029;-83
2022/08/08 12:10:32;;;;;;;1.20;1.10;;;;;;;34.48;20.55;99463.41;5026741;28;20033;-81